logo
Search for airport 
image banner adimage banner adimage banner ad
image banner ad

LOKX - Diex-Lobnig

Located in District Volkermarkt, Austria

ICAO - , IATA -

Data provided by Airmate  

General information

Coordinates: N46°42'57" E14°36'42"
Elevation is 3517 feet MSL.
 
View others Airports in Tyrol

Operational data

Special qualification required
Current time UTC:
Current local time:
Weather at : LOWK - Klagenfurt ( 22 km )
METAR: LOWK 150950Z AUTO VRB02KT CAVOK 22/11 Q1011 TEMPO 22010KT
TAF: TAF LOWK 150515Z 1506/1606 VRB04KT CAVOK TX25/1511Z TN12/1605Z BECMG 1510/1512 21012KT TEMPO 1517/1520 FEW060CB BECMG 1520/1522 VRB03KT TEMPO 1602/1604 02008KT
View NOTAMs / SUP AIP / TFR affecting this airport [VIEW]
Communications frequencies: [VIEW]

Runways:

Airport contact information

Address: District Volkermarkt Austria

Satellite view of LOKX